Estación de Trinidad

Ultimos registro cada 15 minutos 86
Estación Fecha / Hora Temperatura Humedad Lluvia Velocidad Dirección Radiación Presion
86 Trinidad 03-05-2026 21:15 11,6 84 0 0 295 0 1019,8
85 Trinidad 03-05-2026 21:00 11,9 84 0 0 295 0 1019,9
84 Trinidad 03-05-2026 20:45 12,1 83 0 0 295 0 1019,9
83 Trinidad 03-05-2026 20:30 12,3 82 0 0 295 0 1019,8
82 Trinidad 03-05-2026 20:15 12,7 81 0 0 295 0 1019,6
81 Trinidad 03-05-2026 20:00 13,2 79 0 0 295 0 1019,5
80 Trinidad 03-05-2026 19:45 13,3 80 0 0 295 0 1019,3
79 Trinidad 03-05-2026 19:30 13,6 78 0 0 295 0 1019,3
78 Trinidad 03-05-2026 19:15 13,8 78 0 0 295 0 1019,3
77 Trinidad 03-05-2026 19:00 14,3 77 0 0 295 0 1019,3
76 Trinidad 03-05-2026 18:45 14,4 76 0 0 295 0 1019,5
75 Trinidad 03-05-2026 18:30 15,2 72 0 0 295 0 1019,2
74 Trinidad 03-05-2026 18:15 15,6 71 0 0 295 0 1019,3
73 Trinidad 03-05-2026 18:00 16,2 70 0 0 295 0 1019,2
72 Trinidad 03-05-2026 17:45 16,7 68 0 0 295 12 1019,1
71 Trinidad 03-05-2026 17:30 17 66 0 0,4 295 30 1019,2
70 Trinidad 03-05-2026 17:15 17,2 66 0 0,4 295 37 1019
69 Trinidad 03-05-2026 17:00 17,8 64 0 0 295 65 1019,4
68 Trinidad 03-05-2026 16:45 18,1 59 0 0,9 295 91 1019,1
67 Trinidad 03-05-2026 16:30 18,5 59 0 1,8 309 165 1019
66 Trinidad 03-05-2026 16:15 18,7 59 0 1,3 283 322 1019
65 Trinidad 03-05-2026 16:00 18,5 60 0 1,3 268 269 1019
64 Trinidad 03-05-2026 15:45 18,5 60 0 1,3 308 373 1018,9
63 Trinidad 03-05-2026 15:30 18 61 0 1,3 12 320 1019,1
62 Trinidad 03-05-2026 15:15 17,8 62 0 1,3 328 313 1019
61 Trinidad 03-05-2026 15:00 17,1 66 0 2,7 293 492 1019,1
60 Trinidad 03-05-2026 14:45 16,7 65 0 1,3 199 213 1018,9
59 Trinidad 03-05-2026 14:30 16,6 65 0 1,3 198 253 1019,1
58 Trinidad 03-05-2026 14:15 16,3 63 0 0 198 172 1019,2
57 Trinidad 03-05-2026 14:00 16 67 0 0 198 162 1019,4
56 Trinidad 03-05-2026 13:45 15,8 65 0 0,9 198 153 1019,3
55 Trinidad 03-05-2026 13:30 15,7 65 0 0 178 135 1019,3
54 Trinidad 03-05-2026 13:15 15,5 64 0 0,4 178 149 1019,6
53 Trinidad 03-05-2026 13:00 15,6 66 0 0,9 151 172 1019,7
52 Trinidad 03-05-2026 12:45 16,2 66 0 0 160 213 1019,6
51 Trinidad 03-05-2026 12:30 16,3 63 0 0 306 209 1019,6
50 Trinidad 03-05-2026 12:15 16,3 62 0 0,4 306 251 1019,5
49 Trinidad 03-05-2026 12:00 15,1 71 0 0 307 417 1020
48 Trinidad 03-05-2026 11:45 14,6 71 0 0 307 320 1019,9
47 Trinidad 03-05-2026 11:30 14,1 72 0 0 306 255 1020,2
46 Trinidad 03-05-2026 11:15 13,8 73 0 0,9 306 281 1020,4
45 Trinidad 03-05-2026 11:00 13,4 74 0 0 307 281 1020,5
44 Trinidad 03-05-2026 10:45 13,2 75 0 0,4 307 230 1020,6
43 Trinidad 03-05-2026 10:30 12,6 77 0 1,8 318 675 1020,4
42 Trinidad 03-05-2026 10:15 11,2 80 0 0,4 328 483 1020,3
41 Trinidad 03-05-2026 10:00 10,3 85 0 0,4 306 345 1020,5
40 Trinidad 03-05-2026 09:45 8,9 90 0 0 303 394 1020,6
39 Trinidad 03-05-2026 09:30 7,7 93 0 0,4 298 341 1020,7
38 Trinidad 03-05-2026 09:15 7,1 95 0 1,8 295 163 1020,4
37 Trinidad 03-05-2026 09:00 6 95 0 0 294 62 1020,9
36 Trinidad 03-05-2026 08:45 4,8 95 0 0 294 178 1020,3
35 Trinidad 03-05-2026 08:30 3,6 94 0 0 293 158 1020
34 Trinidad 03-05-2026 08:15 2,7 94 0 2,2 337 105 1019,8
33 Trinidad 03-05-2026 08:00 1,2 93 0 0 340 39 1020
32 Trinidad 03-05-2026 07:45 0,9 93 0 0 341 28 1019,8
31 Trinidad 03-05-2026 07:30 0,9 92 0 0 341 7 1019,7
30 Trinidad 03-05-2026 07:15 1,4 92 0,2 0 341 0 1019
29 Trinidad 03-05-2026 07:00 1,8 93 0 0 341 0 1019
28 Trinidad 03-05-2026 06:45 1,8 92 0 0 341 0 1018,7
27 Trinidad 03-05-2026 06:30 1,9 92 0 0 341 0 1018,9
26 Trinidad 03-05-2026 06:15 1,9 92 0 0 341 0 1018,8
25 Trinidad 03-05-2026 06:00 2,3 91 0 0 341 0 1019
24 Trinidad 03-05-2026 05:45 4,2 94 0 0 341 0 1018,9
23 Trinidad 03-05-2026 05:30 3,4 94 0 0,9 343 0 1018,6
22 Trinidad 03-05-2026 05:15 2,2 92 0 0 341 0 1018,8
21 Trinidad 03-05-2026 05:00 2,1 92 0 0 341 0 1019,1
20 Trinidad 03-05-2026 04:45 2,4 92 0 0 341 0 1019,2
19 Trinidad 03-05-2026 04:30 2,4 92 0 0 341 0 1019,4
18 Trinidad 03-05-2026 04:15 2,2 91 0 0 341 0 1019,3
17 Trinidad 03-05-2026 04:00 2,6 91 0 0 341 0 1019,3
16 Trinidad 03-05-2026 03:45 3,1 91 0 0 341 0 1019,4
15 Trinidad 03-05-2026 03:30 3,6 91 0 0 341 0 1019,4
14 Trinidad 03-05-2026 03:15 3,8 93 0 0 341 0 1019,2
13 Trinidad 03-05-2026 03:00 3,4 91 0 0 341 0 1019,5
12 Trinidad 03-05-2026 02:45 4,1 91 0 0 341 0 1019,3
11 Trinidad 03-05-2026 02:30 4,4 93 0 0 341 0 1019,4
10 Trinidad 03-05-2026 02:15 3,2 91 0 0 341 0 1019,3
9 Trinidad 03-05-2026 02:00 3,3 90 0 0 341 0 1019,2
8 Trinidad 03-05-2026 01:45 3,6 90 0 0 341 0 1019,6
7 Trinidad 03-05-2026 01:30 3,8 90 0 0 341 0 1019,4
6 Trinidad 03-05-2026 01:15 3,9 89 0 0 341 0 1019,1
5 Trinidad 03-05-2026 01:00 4,4 89 0 0 341 0 1019,2
4 Trinidad 03-05-2026 00:45 5,1 89 0 0 341 0 1018,9
3 Trinidad 03-05-2026 00:30 4,8 90 0 0 341 0 1018,9
2 Trinidad 03-05-2026 00:15 4,8 88 0 0 341 0 1019
1 Trinidad 03-05-2026 00:00 5,4 90 0 0 341 0 1019,1